Time;durP1;ratioP1;P1;durP2;ratioP2;P2;SDS_P1;SDS_P2;PMS_P1;PMS_P2;Temp;Humidity;BMP_temperature;BMP_pressure;BME280_temperature;BME280_humidity;BME280_pressure;Samples;Min_cycle;Max_cycle;Signal;HPM_P1;HPM_P2
2021/03/18 00:01:29;;;;;;;7.60;4.60;;;;;;;-1.75;82.43;96190.44;5112972;28;20248;-75
2021/03/18 00:03:55;;;;;;;7.80;4.60;;;;;;;-1.78;82.46;96183.75;5079594;28;20180;-75
2021/03/18 00:06:21;;;;;;;6.93;4.40;;;;;;;-1.77;82.30;96192.19;5095904;28;20179;-75
2021/03/18 00:08:46;;;;;;;6.87;4.43;;;;;;;-1.74;82.62;96192.13;5097009;28;20215;-75
2021/03/18 00:11:15;;;;;;;7.13;4.10;;;;;;;-1.75;82.51;96196.38;5096064;28;20210;-75
2021/03/18 00:13:42;;;;;;;5.63;3.93;;;;;;;-1.72;81.96;96206.44;5079345;28;20171;-75
2021/03/18 00:16:08;;;;;;;6.67;4.00;;;;;;;-1.71;81.65;96205.53;5095962;28;20661;-75
2021/03/18 00:18:42;;;;;;;6.20;4.00;;;;;;;-1.71;81.62;96195.34;5096350;28;20170;-75
2021/03/18 00:21:07;;;;;;;8.73;3.77;;;;;;;-1.72;81.65;96205.59;5114371;28;20252;-75
2021/03/18 00:23:33;;;;;;;5.90;4.30;;;;;;;-1.68;81.77;96208.84;5096107;28;20178;-75
2021/03/18 00:25:59;;;;;;;8.33;3.90;;;;;;;-1.69;81.51;96197.84;5095895;28;20178;-75
2021/03/18 00:28:24;;;;;;;5.53;3.93;;;;;;;-1.69;81.64;96190.19;5094307;28;20226;-75
2021/03/18 00:30:49;;;;;;;8.17;4.13;;;;;;;-1.68;82.10;96184.22;5094491;28;20224;-75
2021/03/18 00:33:15;;;;;;;6.47;3.80;;;;;;;-1.67;82.20;96180.81;5094226;28;20232;-75
2021/03/18 00:35:41;;;;;;;5.67;3.80;;;;;;;-1.66;82.00;96177.38;5112302;28;20179;-75
2021/03/18 00:38:06;;;;;;;6.13;3.90;;;;;;;-1.67;81.87;96178.25;5094167;28;20271;-75
2021/03/18 00:40:38;;;;;;;11.10;4.27;;;;;;;-1.70;81.74;96168.19;5112426;28;20171;-75
2021/03/18 00:43:06;;;;;;;7.53;4.10;;;;;;;-1.69;81.67;96161.38;5094171;28;20167;-75
2021/03/18 00:45:34;;;;;;;5.70;4.00;;;;;;;-1.68;81.36;96163.84;5093927;28;20235;-75
2021/03/18 00:48:00;;;;;;;6.53;3.87;;;;;;;-1.69;81.42;96157.09;5093515;28;20214;-75
2021/03/18 00:50:34;;;;;;;5.43;4.40;;;;;;;-1.69;81.39;96159.66;5094226;28;20272;-75
2021/03/18 00:52:59;;;;;;;5.37;3.90;;;;;;;-1.68;81.54;96158.75;5094026;28;20189;-75
2021/03/18 00:55:26;;;;;;;8.50;3.90;;;;;;;-1.71;81.20;96153.78;5093895;28;20184;-75
2021/03/18 00:57:52;;;;;;;5.47;3.70;;;;;;;-1.67;81.31;96155.34;5093506;28;20167;-75
2021/03/18 01:00:50;;;;;;;8.23;3.60;;;;;;;-1.67;81.38;96155.34;5112159;28;20646;-76
2021/03/18 01:03:16;;;;;;;5.37;3.80;;;;;;;-1.65;81.20;96152.72;5009453;28;20194;-75
2021/03/18 01:05:47;;;;;;;5.70;3.83;;;;;;;-1.65;81.41;96158.66;5009437;28;20589;-75
2021/03/18 01:08:15;;;;;;;3.93;3.40;;;;;;;-1.59;80.93;96163.53;4993174;28;20214;-75
2021/03/18 01:10:49;;;;;;;6.27;3.37;;;;;;;-1.65;79.96;96168.84;5009454;28;20341;-75
2021/03/18 01:13:18;;;;;;;5.90;4.10;;;;;;;-1.64;80.16;96177.31;4992752;28;20284;-75
2021/03/18 01:15:54;;;;;;;5.40;3.43;;;;;;;-1.62;80.15;96168.72;4992866;28;20273;-75
2021/03/18 01:18:22;;;;;;;6.73;4.07;;;;;;;-1.64;80.67;96169.66;5009412;28;20240;-75
2021/03/18 01:20:47;;;;;;;7.20;3.97;;;;;;;-1.65;80.96;96168.84;5009189;28;20188;-75
2021/03/18 01:23:13;;;;;;;3.93;3.53;;;;;;;-1.66;81.04;96161.25;5009434;28;20314;-75
2021/03/18 01:25:38;;;;;;;4.37;3.50;;;;;;;-1.64;81.54;96159.47;4992442;28;20181;-75
2021/03/18 01:28:04;;;;;;;8.77;4.30;;;;;;;-1.65;81.53;96163.75;4992839;28;20623;-75
2021/03/18 01:30:30;;;;;;;7.20;4.30;;;;;;;-1.64;81.47;96154.38;4992957;28;20625;-75
2021/03/18 01:32:56;;;;;;;6.47;3.83;;;;;;;-1.65;81.79;96150.19;5009027;28;20212;-76
2021/03/18 01:35:22;;;;;;;6.13;4.40;;;;;;;-1.65;81.90;96147.66;5009029;28;20218;-75
2021/03/18 01:37:48;;;;;;;5.53;3.93;;;;;;;-1.68;81.38;96143.47;4992920;28;20175;-76
2021/03/18 01:40:24;;;;;;;6.80;4.27;;;;;;;-1.67;81.23;96142.63;5069856;28;20186;-75
2021/03/18 01:42:49;;;;;;;5.33;4.13;;;;;;;-1.71;80.97;96144.44;5093488;28;20190;-75
2021/03/18 01:45:15;;;;;;;6.77;4.30;;;;;;;-1.67;81.48;96145.16;5093175;28;20643;-75
2021/03/18 01:47:42;;;;;;;6.93;4.37;;;;;;;-1.67;81.48;96150.25;5092836;28;20222;-75
2021/03/18 01:50:09;;;;;;;7.13;4.17;;;;;;;-1.66;81.25;96143.44;5093394;28;20525;-75
2021/03/18 01:52:36;;;;;;;7.37;4.43;;;;;;;-1.66;81.62;96154.47;5111308;28;20214;-75
2021/03/18 01:55:01;;;;;;;7.33;4.30;;;;;;;-1.67;81.65;96146.88;5093176;28;20545;-75
2021/03/18 01:57:27;;;;;;;5.07;4.30;;;;;;;-1.66;81.83;96151.91;5093125;28;20185;-75
2021/03/18 01:59:53;;;;;;;6.13;4.47;;;;;;;-1.69;81.97;96144.38;5111417;28;20203;-76
2021/03/18 02:02:18;;;;;;;6.13;4.23;;;;;;;-1.69;81.83;96146.91;5093119;28;20196;-75
2021/03/18 02:04:44;;;;;;;8.97;5.27;;;;;;;-1.68;82.18;96156.22;5111000;28;20176;-75
2021/03/18 02:07:09;;;;;;;8.90;4.53;;;;;;;-1.72;82.03;96142.78;5093366;28;20176;-75
2021/03/18 02:09:34;;;;;;;5.07;4.53;;;;;;;-1.72;81.82;96147.03;5094449;28;20665;-75
2021/03/18 02:12:00;;;;;;;6.93;4.30;;;;;;;-1.69;81.98;96138.44;5115140;28;20203;-75
2021/03/18 02:14:25;;;;;;;8.67;5.30;;;;;;;-1.69;81.98;96148.63;5096758;28;20175;-75
2021/03/18 02:16:54;;;;;;;8.20;4.17;;;;;;;-1.72;81.40;96139.41;5096922;28;20199;-75
2021/03/18 02:19:22;;;;;;;8.53;5.13;;;;;;;-1.73;81.89;96130.09;5096774;28;20634;-75
2021/03/18 02:22:09;;;;;;;6.80;4.03;;;;;;;-1.72;81.56;96139.41;5114981;28;20200;-75
2021/03/18 02:24:59;;;;;;;7.63;4.60;;;;;;;-1.71;81.95;96134.25;5096738;28;20171;-75
2021/03/18 02:27:38;;;;;;;5.77;4.00;;;;;;;-1.67;81.73;96140.06;5115012;28;20178;-75
2021/03/18 02:30:36;;;;;;;7.00;4.37;;;;;;;-1.69;81.84;96134.19;5096514;28;20210;-75
2021/03/18 02:33:26;;;;;;;5.87;4.03;;;;;;;-1.68;81.18;96129.91;5114959;28;20179;-75
2021/03/18 02:36:03;;;;;;;8.10;3.87;;;;;;;-1.69;81.25;96131.63;5096333;28;20579;-75
2021/03/18 02:38:32;;;;;;;5.23;3.73;;;;;;;-1.69;81.22;96134.19;5079918;28;20181;-75
2021/03/18 02:41:03;;;;;;;7.87;3.97;;;;;;;-1.71;80.97;96133.41;5096499;28;20188;-75
2021/03/18 02:43:32;;;;;;;4.87;3.90;;;;;;;-1.71;80.79;96139.34;5096537;28;20171;-75
2021/03/18 02:46:00;;;;;;;5.87;3.83;;;;;;;-1.73;80.88;96142.84;5096011;28;20187;-75
2021/03/18 02:48:30;;;;;;;6.93;4.17;;;;;;;-1.75;80.56;96134.44;5114524;28;20206;-75
2021/03/18 02:50:55;;;;;;;5.07;4.20;;;;;;;-1.75;81.38;96140.34;5096181;28;20220;-75
2021/03/18 02:53:23;;;;;;;5.37;3.80;;;;;;;-1.76;80.53;96135.31;5096299;28;20171;-75
2021/03/18 02:55:50;;;;;;;5.20;3.57;;;;;;;-1.77;80.93;96146.38;5095947;28;20241;-75
2021/03/18 02:58:19;;;;;;;6.23;3.83;;;;;;;-1.78;80.94;96145.53;5096318;28;20186;-75
2021/03/18 03:00:45;;;;;;;7.13;3.90;;;;;;;-1.78;80.92;96144.72;5095884;28;20270;-75
2021/03/18 03:03:11;;;;;;;6.87;4.67;;;;;;;-1.76;80.86;96150.59;5096099;28;20654;-75
2021/03/18 03:05:36;;;;;;;6.30;4.00;;;;;;;-1.77;80.68;96154.00;5095746;28;20230;-75
2021/03/18 03:08:04;;;;;;;8.63;4.40;;;;;;;-1.77;81.04;96149.78;5114108;28;20226;-75
2021/03/18 03:10:30;;;;;;;6.10;3.80;;;;;;;-1.79;80.85;96148.16;5095996;28;20666;-75
2021/03/18 03:12:56;;;;;;;7.63;4.10;;;;;;;-1.81;80.42;96152.47;5096009;28;20294;-74
2021/03/18 03:15:23;;;;;;;8.47;4.20;;;;;;;-1.80;80.63;96154.97;5078480;28;20180;-74
2021/03/18 03:17:48;;;;;;;5.37;3.33;;;;;;;-1.78;80.73;96152.34;5095633;28;20197;-75
2021/03/18 03:20:15;;;;;;;6.70;3.67;;;;;;;-1.81;80.51;96152.47;5095568;28;20170;-75
2021/03/18 03:22:42;;;;;;;5.93;3.63;;;;;;;-1.82;80.79;96155.91;5095532;28;20193;-75
2021/03/18 03:25:10;;;;;;;7.73;4.17;;;;;;;-1.85;80.41;96146.69;5095392;28;20181;-75
2021/03/18 03:27:36;;;;;;;5.90;3.77;;;;;;;-1.82;81.10;96151.66;5095488;28;20439;-75
2021/03/18 03:30:01;;;;;;;7.20;3.90;;;;;;;-1.79;80.88;96155.78;5095309;28;20256;-75
2021/03/18 03:32:26;;;;;;;5.97;4.27;;;;;;;-1.82;80.93;96151.66;5095363;28;20195;-75
2021/03/18 03:34:53;;;;;;;4.90;3.40;;;;;;;-1.81;80.90;96155.03;5095233;28;20258;-74
2021/03/18 03:37:18;;;;;;;6.87;4.13;;;;;;;-1.86;80.65;96154.34;5095347;28;20194;-75
2021/03/18 03:39:43;;;;;;;9.77;4.10;;;;;;;-1.85;80.36;96161.13;5095262;28;20631;-75
2021/03/18 03:42:10;;;;;;;8.60;4.27;;;;;;;-1.90;80.06;96160.47;5078381;28;20736;-75
2021/03/18 03:44:37;;;;;;;6.30;4.10;;;;;;;-1.90;80.28;96163.00;5113183;28;20191;-75
2021/03/18 03:47:04;;;;;;;6.23;4.00;;;;;;;-1.89;80.22;96160.41;5094692;28;20642;-74
2021/03/18 03:49:29;;;;;;;8.90;4.40;;;;;;;-1.84;80.01;96155.97;5095062;28;20285;-74
2021/03/18 03:52:11;;;;;;;6.77;4.80;;;;;;;-1.92;80.59;96157.16;5094983;28;20590;-74
2021/03/18 03:54:38;;;;;;;7.03;5.30;;;;;;;-1.93;81.43;96158.88;5094780;28;20666;-75
2021/03/18 03:57:13;;;;;;;9.73;6.03;;;;;;;-1.95;81.42;96160.63;5113164;28;20634;-75
2021/03/18 03:59:40;;;;;;;9.87;6.20;;;;;;;-2.02;82.39;96170.22;5094971;28;20162;-74
2021/03/18 04:02:08;;;;;;;8.70;6.53;;;;;;;-1.95;82.30;96165.72;5094914;28;20205;-74
2021/03/18 04:04:42;;;;;;;8.20;6.33;;;;;;;-1.91;82.77;96164.72;5094684;28;20202;-74
2021/03/18 04:07:10;;;;;;;9.77;7.17;;;;;;;-1.90;82.39;96163.00;5094656;28;20686;-74
2021/03/18 04:09:37;;;;;;;8.73;6.70;;;;;;;-1.93;82.97;96165.69;5077600;28;20210;-74
2021/03/18 04:12:04;;;;;;;13.73;7.60;;;;;;;-1.93;83.32;96163.13;5094514;28;20213;-75
2021/03/18 04:14:32;;;;;;;13.83;7.47;;;;;;;-1.91;83.68;96167.28;5094221;28;20175;-74
2021/03/18 04:17:01;;;;;;;11.60;8.47;;;;;;;-1.91;83.86;96151.19;5094712;28;20185;-74
2021/03/18 04:19:26;;;;;;;11.40;7.80;;;;;;;-1.90;83.76;96152.84;5094449;28;20178;-75
2021/03/18 04:21:53;;;;;;;13.40;7.77;;;;;;;-1.86;83.79;96156.91;5112587;28;20194;-74
2021/03/18 04:24:20;;;;;;;12.03;7.57;;;;;;;-1.85;83.73;96161.13;5094224;28;20228;-74
2021/03/18 04:26:46;;;;;;;14.40;8.37;;;;;;;-1.83;83.58;96154.25;5077493;28;20827;-74
2021/03/18 04:29:13;;;;;;;11.97;7.43;;;;;;;-1.83;83.66;96155.09;5112457;28;20203;-74
2021/03/18 04:31:40;;;;;;;12.77;7.83;;;;;;;-1.86;83.67;96156.91;5093711;28;20195;-74
2021/03/18 04:34:06;;;;;;;15.07;8.20;;;;;;;-1.84;83.55;96152.59;5094101;28;20216;-75
2021/03/18 04:36:33;;;;;;;15.13;8.00;;;;;;;-1.86;83.67;96149.28;5077078;28;20174;-74
2021/03/18 04:39:00;;;;;;;13.63;7.70;;;;;;;-1.88;83.43;96154.44;5094232;28;20162;-74
2021/03/18 04:41:26;;;;;;;11.83;7.10;;;;;;;-1.86;83.56;96155.19;5094160;28;20228;-75
2021/03/18 04:43:52;;;;;;;10.53;6.97;;;;;;;-1.84;83.59;96150.88;5094185;28;20175;-74
2021/03/18 04:46:18;;;;;;;11.93;7.50;;;;;;;-1.83;83.72;96156.81;5093450;28;20235;-75
2021/03/18 04:48:44;;;;;;;10.30;6.70;;;;;;;-1.82;83.67;96150.81;5112164;28;20249;-74
2021/03/18 04:51:09;;;;;;;12.60;7.97;;;;;;;-1.86;83.53;96149.28;5094076;28;20601;-74
2021/03/18 04:53:36;;;;;;;13.53;7.37;;;;;;;-1.89;83.49;96150.22;5093961;28;20231;-74
2021/03/18 04:56:08;;;;;;;14.30;9.83;;;;;;;-1.88;83.97;96146.78;5093773;28;20607;-75
2021/03/18 04:58:35;;;;;;;14.67;9.57;;;;;;;-1.85;84.27;96148.41;5076947;28;20626;-74
2021/03/18 05:01:00;;;;;;;16.60;8.90;;;;;;;-1.87;84.21;96145.91;5093863;28;20310;-74
2021/03/18 05:03:26;;;;;;;11.60;7.37;;;;;;;-1.87;84.00;96139.97;5093934;28;20178;-74
2021/03/18 05:05:52;;;;;;;12.47;6.90;;;;;;;-1.97;83.97;96136.13;5093529;28;20179;-74
2021/03/18 05:08:18;;;;;;;12.40;6.60;;;;;;;-1.96;83.53;96136.06;5093719;28;20190;-75
2021/03/18 05:10:43;;;;;;;14.57;6.77;;;;;;;-2.00;83.97;96137.91;5093809;28;20220;-75
2021/03/18 05:13:10;;;;;;;16.87;7.83;;;;;;;-1.99;84.38;96143.81;5110396;28;20234;-74
2021/03/18 05:15:37;;;;;;;14.03;8.37;;;;;;;-1.93;84.40;96142.78;5111671;28;20690;-74
2021/03/18 05:18:04;;;;;;;13.60;7.20;;;;;;;-1.90;84.16;96148.56;5093713;28;20611;-75
2021/03/18 05:20:31;;;;;;;11.97;6.37;;;;;;;-1.93;84.04;96147.88;5093587;28;20184;-74
2021/03/18 05:22:56;;;;;;;15.83;7.80;;;;;;;-1.95;84.36;96155.53;5093454;28;20636;-74
2021/03/18 05:25:25;;;;;;;8.67;6.23;;;;;;;-2.03;84.02;96155.84;5093443;28;20311;-74
2021/03/18 05:27:50;;;;;;;12.60;8.23;;;;;;;-2.01;84.41;96156.63;5093437;28;20192;-75
2021/03/18 05:30:16;;;;;;;13.80;8.03;;;;;;;-1.99;84.83;96169.28;5093543;28;20186;-75
2021/03/18 05:32:42;;;;;;;12.30;6.53;;;;;;;-1.96;84.22;96163.22;5093374;28;20198;-75
2021/03/18 05:35:09;;;;;;;8.57;6.63;;;;;;;-2.01;84.60;96166.78;5093272;28;20186;-74
2021/03/18 05:37:34;;;;;;;14.97;8.50;;;;;;;-2.05;85.27;96170.31;5111650;28;20194;-74
2021/03/18 05:40:01;;;;;;;10.73;7.20;;;;;;;-1.98;85.59;96159.91;5110376;28;20183;-74
2021/03/18 05:42:27;;;;;;;12.40;7.40;;;;;;;-1.98;85.24;96157.38;5093296;28;20197;-74
2021/03/18 05:44:52;;;;;;;10.27;6.97;;;;;;;-1.96;85.54;96160.69;5097289;28;20540;-74
2021/03/18 05:47:18;;;;;;;11.70;7.10;;;;;;;-1.91;85.72;96161.34;5115502;28;20179;-74
2021/03/18 05:49:44;;;;;;;11.37;6.77;;;;;;;-1.97;85.46;96152.22;5091679;28;20214;-74
2021/03/18 05:52:10;;;;;;;17.00;9.00;;;;;;;-1.97;85.64;96156.50;5110039;27;20204;-74
2021/03/18 05:54:39;;;;;;;9.13;6.87;;;;;;;-1.91;85.45;96153.72;5107905;28;20190;-74
2021/03/18 05:57:04;;;;;;;14.00;7.90;;;;;;;-1.85;85.60;96156.03;5114160;28;20262;-74
2021/03/18 05:59:30;;;;;;;17.80;11.50;;;;;;;-1.88;85.09;96159.50;5114431;28;20277;-75
2021/03/18 06:01:56;;;;;;;25.90;13.90;;;;;;;-1.88;84.83;96156.97;5091193;28;20215;-75
2021/03/18 06:04:22;;;;;;;12.53;8.00;;;;;;;-1.88;84.75;96156.13;5103685;28;20189;-74
2021/03/18 06:06:48;;;;;;;9.57;6.90;;;;;;;-1.85;85.27;96156.03;5114700;28;20257;-74
2021/03/18 06:09:13;;;;;;;10.93;6.93;;;;;;;-1.85;85.08;96156.88;5092341;28;20215;-74
2021/03/18 06:11:39;;;;;;;11.90;7.00;;;;;;;-1.75;85.57;96157.34;5082198;28;20214;-74
2021/03/18 06:14:05;;;;;;;11.50;7.33;;;;;;;-1.65;84.77;96153.56;5095315;28;20561;-74
2021/03/18 06:16:30;;;;;;;12.90;6.97;;;;;;;-1.63;84.64;96149.22;5114307;28;20189;-74
2021/03/18 06:18:57;;;;;;;10.37;6.73;;;;;;;-1.53;84.64;96157.34;5096353;28;20705;-74
2021/03/18 06:21:42;;;;;;;12.80;8.13;;;;;;;-1.60;84.31;96155.91;5114745;28;20191;-74
2021/03/18 06:24:09;;;;;;;9.63;7.93;;;;;;;-1.48;84.88;96161.38;5113093;28;20207;-74
2021/03/18 06:26:38;;;;;;;9.77;6.97;;;;;;;-1.35;84.02;96161.72;5114120;28;20680;-74
2021/03/18 06:29:27;;;;;;;11.33;8.13;;;;;;;-1.17;83.88;96160.16;5095811;28;20198;-74
2021/03/18 06:31:52;;;;;;;11.10;7.93;;;;;;;-1.07;83.48;96156.34;5094054;28;20190;-74
2021/03/18 06:34:40;;;;;;;10.73;7.10;;;;;;;-1.11;82.51;96152.28;5096114;28;20191;-74
2021/03/18 06:37:28;;;;;;;9.83;6.10;;;;;;;-1.03;82.26;96152.78;5096570;28;20254;-74
2021/03/18 06:39:55;;;;;;;8.40;5.70;;;;;;;-0.92;81.59;96152.34;5114791;28;20182;-74
2021/03/18 06:42:20;;;;;;;8.77;5.63;;;;;;;-0.91;81.33;96151.44;5096039;28;20195;-74
2021/03/18 06:44:46;;;;;;;7.30;5.40;;;;;;;-0.98;81.08;96147.47;5079220;28;20283;-74
2021/03/18 06:47:12;;;;;;;9.17;5.60;;;;;;;-0.94;81.11;96149.84;5114537;28;20635;-74
2021/03/18 06:49:38;;;;;;;8.57;5.57;;;;;;;-0.97;80.77;96151.69;5096459;28;20210;-74
2021/03/18 06:52:04;;;;;;;10.60;5.40;;;;;;;-0.93;81.40;96151.50;5096244;28;20202;-74
2021/03/18 06:54:33;;;;;;;7.43;5.10;;;;;;;-0.80;81.01;96151.00;5111394;28;20700;-74
2021/03/18 06:56:59;;;;;;;8.20;5.27;;;;;;;-0.69;80.25;96154.78;5088163;28;20270;-74
2021/03/18 06:59:27;;;;;;;9.60;5.13;;;;;;;-0.67;79.87;96154.69;5110346;28;20224;-74
2021/03/18 07:02:17;;;;;;;7.67;4.80;;;;;;;-0.70;80.04;96159.94;5112113;28;20265;-74
2021/03/18 07:04:53;;;;;;;7.57;4.87;;;;;;;-0.55;79.09;96158.44;5112931;28;20651;-73
2021/03/18 07:07:21;;;;;;;8.53;4.50;;;;;;;-0.44;78.54;96166.47;5123445;27;20232;-73
2021/03/18 07:09:48;;;;;;;7.10;4.90;;;;;;;-0.34;78.47;96160.91;5097881;28;20627;-74
2021/03/18 07:12:16;;;;;;;7.60;4.40;;;;;;;-0.27;77.95;96164.00;5094973;28;20237;-74
2021/03/18 07:14:44;;;;;;;7.97;4.47;;;;;;;-0.46;77.95;96163.16;5102314;28;20206;-74
2021/03/18 07:17:33;;;;;;;7.40;4.73;;;;;;;-0.22;77.82;96161.28;5095631;28;20176;-73
2021/03/18 07:20:19;;;;;;;6.73;4.87;;;;;;;-0.15;77.51;96152.44;5106151;28;20697;-74
2021/03/18 07:22:55;;;;;;;6.90;4.93;;;;;;;-0.04;76.86;96150.25;5070116;28;20191;-73
2021/03/18 07:25:24;;;;;;;11.33;5.17;;;;;;;0.03;76.66;96149.06;5093169;28;20274;-74
2021/03/18 07:27:52;;;;;;;6.03;4.07;;;;;;;-0.03;75.88;96162.09;5094969;28;20190;-74
2021/03/18 07:30:36;;;;;;;8.40;5.47;;;;;;;0.07;75.66;96153.13;5108244;28;20200;-74
2021/03/18 07:33:02;;;;;;;6.57;4.90;;;;;;;0.09;75.88;96161.56;5102261;28;20187;-74
2021/03/18 07:35:28;;;;;;;7.00;4.77;;;;;;;0.15;75.55;96161.28;5113081;28;20186;-74
2021/03/18 07:37:55;;;;;;;6.83;4.63;;;;;;;0.15;75.17;96156.16;5094898;28;20194;-74
2021/03/18 07:40:21;;;;;;;9.70;5.20;;;;;;;0.13;74.62;96160.53;5095196;28;20198;-74
2021/03/18 07:42:51;;;;;;;9.83;5.23;;;;;;;0.14;74.27;96159.63;5111323;28;20227;-74
2021/03/18 07:45:21;;;;;;;11.27;5.30;;;;;;;0.23;74.60;96155.81;5096065;28;20220;-74
2021/03/18 07:47:47;;;;;;;8.70;4.50;;;;;;;0.26;74.23;96153.94;5090532;28;20786;-74
2021/03/18 07:50:14;;;;;;;10.63;4.97;;;;;;;0.43;73.54;96147.22;5110439;28;20269;-74
2021/03/18 07:52:42;;;;;;;9.63;5.10;;;;;;;0.36;72.31;96154.38;5102091;28;20671;-75
2021/03/18 07:55:18;;;;;;;10.50;4.27;;;;;;;0.31;71.45;96155.47;5094504;28;20183;-76
2021/03/18 07:57:45;;;;;;;11.80;4.63;;;;;;;0.24;70.38;96155.75;5094733;28;20262;-74
2021/03/18 08:00:15;;;;;;;6.37;3.83;;;;;;;0.33;70.78;96151.94;5112696;28;20596;-74
2021/03/18 08:02:40;;;;;;;5.70;4.27;;;;;;;0.36;70.17;96151.81;5094356;28;20196;-74
2021/03/18 08:05:06;;;;;;;6.27;4.30;;;;;;;0.41;70.03;96152.41;5093681;28;20216;-74
2021/03/18 08:07:46;;;;;;;6.70;4.13;;;;;;;0.52;70.15;96150.19;5103177;28;20211;-74
2021/03/18 08:10:21;;;;;;;10.17;4.80;;;;;;;0.64;70.00;96148.81;5097214;28;20218;-75
2021/03/18 08:12:48;;;;;;;7.07;3.93;;;;;;;0.94;69.49;96150.78;5111915;28;20215;-75
2021/03/18 08:15:23;;;;;;;6.83;4.33;;;;;;;1.26;68.42;96147.47;5110657;28;20535;-75
2021/03/18 08:17:57;;;;;;;9.07;5.00;;;;;;;1.38;65.74;96151.13;5112122;28;20180;-74
2021/03/18 08:20:58;;;;;;;8.70;4.77;;;;;;;1.66;65.59;96155.69;5118780;27;20196;-74
2021/03/18 08:23:26;;;;;;;8.87;4.50;;;;;;;2.11;65.59;96152.44;5087817;28;20688;-74
2021/03/18 08:25:51;;;;;;;6.70;3.60;;;;;;;2.25;63.83;96155.13;5111430;28;20663;-74
2021/03/18 08:28:35;;;;;;;6.23;3.83;;;;;;;2.09;65.23;96150.88;5112079;28;20195;-74
2021/03/18 08:31:00;;;;;;;4.67;3.97;;;;;;;2.26;65.37;96161.06;5111759;28;20199;-74
2021/03/18 08:33:34;;;;;;;5.37;3.97;;;;;;;2.35;63.84;96152.88;5093902;28;20198;-74
2021/03/18 08:36:28;;;;;;;8.33;4.47;;;;;;;1.98;66.98;96143.78;5097638;28;20700;-74
2021/03/18 08:38:59;;;;;;;7.80;4.90;;;;;;;1.76;67.04;96146.63;5111919;28;20172;-74
2021/03/18 08:41:36;;;;;;;8.87;4.40;;;;;;;1.80;67.64;96148.13;5093826;28;20200;-74
2021/03/18 08:44:31;;;;;;;8.93;4.80;;;;;;;1.85;66.84;96146.13;5111945;28;20179;-74
2021/03/18 08:46:57;;;;;;;9.23;4.27;;;;;;;1.79;66.51;96138.78;5094164;28;20262;-74
2021/03/18 08:49:38;;;;;;;8.63;4.10;;;;;;;1.98;66.46;96142.03;5103097;28;20196;-74
2021/03/18 08:52:10;;;;;;;7.37;4.20;;;;;;;1.98;65.44;96139.47;5111385;28;20574;-74
2021/03/18 08:54:36;;;;;;;8.30;4.13;;;;;;;1.75;66.06;96132.16;5095108;28;20236;-74
2021/03/18 08:57:01;;;;;;;9.53;5.07;;;;;;;1.84;66.77;96128.28;5093582;28;20266;-74
2021/03/18 08:59:26;;;;;;;7.80;4.93;;;;;;;2.07;66.21;96127.09;5103949;28;20175;-75
2021/03/18 09:02:02;;;;;;;8.60;4.10;;;;;;;2.33;65.97;96130.81;5092864;28;20196;-75
2021/03/18 09:04:37;;;;;;;7.17;4.93;;;;;;;2.51;64.08;96124.69;5105633;28;20202;-75
2021/03/18 09:07:04;;;;;;;9.00;4.63;;;;;;;2.72;62.62;96132.91;5118502;27;20207;-75
2021/03/18 09:09:29;;;;;;;9.80;4.97;;;;;;;2.41;63.43;96131.22;5092955;28;20203;-75
2021/03/18 09:11:54;;;;;;;9.60;4.83;;;;;;;2.38;64.79;96126.25;5092215;28;20585;-75
2021/03/18 09:14:20;;;;;;;8.97;4.77;;;;;;;2.27;64.57;96127.66;5092787;28;20240;-75
2021/03/18 09:16:46;;;;;;;10.80;4.57;;;;;;;2.67;64.63;96128.06;5088497;27;20188;-76
2021/03/18 09:19:11;;;;;;;7.00;5.03;;;;;;;2.97;63.40;96122.94;5107775;28;20188;-75
2021/03/18 09:21:43;;;;;;;9.20;4.63;;;;;;;3.32;62.82;96123.47;5094562;28;20600;-75
2021/03/18 09:24:10;;;;;;;10.27;5.03;;;;;;;3.56;61.70;96121.22;5093088;28;20274;-75
2021/03/18 09:26:37;;;;;;;8.20;4.53;;;;;;;3.74;62.32;96124.44;5091716;28;20187;-76
2021/03/18 09:29:02;;;;;;;10.20;4.40;;;;;;;4.25;60.27;96130.72;5093013;28;20261;-76
2021/03/18 09:31:28;;;;;;;5.40;4.20;;;;;;;4.74;59.74;96125.03;5111087;28;20690;-77
2021/03/18 09:33:55;;;;;;;5.97;3.47;;;;;;;4.68;55.89;96119.44;5110797;28;20203;-75
2021/03/18 09:36:28;;;;;;;5.43;3.60;;;;;;;4.28;55.87;96119.41;5094675;28;20202;-75
2021/03/18 09:38:58;;;;;;;7.90;4.03;;;;;;;3.75;54.73;96120.09;5093322;28;20210;-77
2021/03/18 09:41:26;;;;;;;5.43;3.60;;;;;;;3.67;56.25;96116.25;5092846;28;20290;-78
2021/03/18 09:44:07;;;;;;;7.13;4.20;;;;;;;2.89;58.09;96116.56;5092895;28;20211;-77
2021/03/18 09:46:34;;;;;;;8.97;4.27;;;;;;;2.64;59.46;96117.13;5101984;28;20171;-76
2021/03/18 09:48:59;;;;;;;6.90;4.30;;;;;;;2.59;59.44;96116.56;5100394;28;20476;-76
2021/03/18 09:51:25;;;;;;;8.20;4.57;;;;;;;2.04;62.40;96111.91;5110829;28;20278;-76
2021/03/18 09:54:00;;;;;;;9.53;5.50;;;;;;;1.90;63.91;96113.44;5088785;28;20189;-76
2021/03/18 09:56:25;;;;;;;7.63;5.47;;;;;;;2.00;62.60;96113.78;5081993;28;20191;-75
2021/03/18 09:58:52;;;;;;;8.40;5.27;;;;;;;2.02;64.27;96104.25;5092756;28;20237;-75
2021/03/18 10:01:20;;;;;;;10.33;6.30;;;;;;;2.13;64.13;96107.09;5101795;28;20742;-76
2021/03/18 10:03:57;;;;;;;6.30;5.00;;;;;;;2.08;64.60;96110.81;5075579;28;20187;-77
2021/03/18 10:06:28;;;;;;;8.30;5.47;;;;;;;2.15;64.76;96105.28;5088861;28;20172;-76
2021/03/18 10:08:55;;;;;;;7.80;4.60;;;;;;;2.14;63.82;96102.81;5092727;28;20241;-75
2021/03/18 10:11:24;;;;;;;7.83;5.20;;;;;;;2.19;64.65;96099.06;5092459;28;20208;-76
2021/03/18 10:13:51;;;;;;;6.33;4.60;;;;;;;2.25;64.81;96103.03;5109929;28;20239;-76
2021/03/18 10:16:17;;;;;;;7.90;4.70;;;;;;;2.28;64.44;96097.72;5092497;28;20176;-75
2021/03/18 10:18:42;;;;;;;7.10;5.40;;;;;;;2.27;64.22;96094.34;5110781;28;20202;-75
2021/03/18 10:21:07;;;;;;;7.67;5.17;;;;;;;2.14;63.61;96090.00;5099459;28;20204;-75
2021/03/18 10:23:34;;;;;;;6.77;5.10;;;;;;;2.23;63.77;96087.75;5111134;28;20172;-74
2021/03/18 10:26:00;;;;;;;6.57;4.97;;;;;;;2.24;63.32;96091.97;5110007;28;20184;-77
2021/03/18 10:28:31;;;;;;;6.43;4.70;;;;;;;2.36;62.80;96087.06;5109822;28;20714;-75
2021/03/18 10:30:56;;;;;;;5.47;4.07;;;;;;;2.24;61.14;96086.84;5097617;28;20196;-76
2021/03/18 10:33:23;;;;;;;7.00;5.10;;;;;;;2.25;61.53;96091.06;5096237;28;20713;-77
2021/03/18 10:35:52;;;;;;;5.83;5.10;;;;;;;2.23;60.84;96085.19;5104086;28;20257;-76
2021/03/18 10:38:24;;;;;;;6.47;5.00;;;;;;;2.32;61.03;96088.97;5114618;28;20183;-77
2021/03/18 10:40:50;;;;;;;6.07;4.87;;;;;;;2.51;61.36;96086.22;5078902;28;20669;-76
2021/03/18 10:43:22;;;;;;;10.13;5.83;;;;;;;2.38;61.90;96091.19;5096122;28;20183;-76
2021/03/18 10:45:48;;;;;;;6.87;4.83;;;;;;;2.73;58.89;96084.09;5113934;28;20176;-76
2021/03/18 10:48:18;;;;;;;8.73;4.93;;;;;;;2.64;59.96;96076.91;5110671;28;20241;-76
2021/03/18 10:50:43;;;;;;;8.83;5.00;;;;;;;2.53;59.27;96077.53;5075745;28;20652;-76
2021/03/18 10:53:10;;;;;;;6.13;4.73;;;;;;;2.62;58.60;96080.50;5095662;28;20214;-76
2021/03/18 10:55:38;;;;;;;7.83;4.47;;;;;;;2.66;57.70;96071.72;5090412;28;20237;-76
2021/03/18 10:58:09;;;;;;;6.10;4.30;;;;;;;2.77;59.25;96077.91;5095476;28;20207;-76
2021/03/18 11:00:40;;;;;;;8.97;4.63;;;;;;;2.58;59.43;96077.28;5095393;28;20180;-77
2021/03/18 11:03:10;;;;;;;7.07;4.17;;;;;;;3.12;57.64;96072.47;5095607;28;20712;-76
2021/03/18 11:05:38;;;;;;;6.67;4.10;;;;;;;2.87;57.94;96067.09;5083925;28;20185;-76
2021/03/18 11:08:05;;;;;;;6.37;4.23;;;;;;;2.73;56.52;96070.44;5110282;28;20211;-76
2021/03/18 11:10:44;;;;;;;5.73;3.90;;;;;;;2.90;57.22;96061.78;5095858;28;20750;-76
2021/03/18 11:13:13;;;;;;;6.40;4.27;;;;;;;2.89;58.95;96058.41;5101205;28;20195;-76
2021/03/18 11:15:48;;;;;;;4.77;4.00;;;;;;;2.96;58.14;96069.97;5086779;28;20180;-76
2021/03/18 11:18:14;;;;;;;5.67;3.40;;;;;;;2.83;56.74;96063.91;5095211;28;20186;-76
2021/03/18 11:20:42;;;;;;;4.13;3.70;;;;;;;2.48;58.68;96065.91;5094427;28;20195;-76
2021/03/18 11:23:07;;;;;;;8.00;4.23;;;;;;;2.57;58.71;96067.13;5066911;28;20188;-76
2021/03/18 11:25:33;;;;;;;6.63;4.50;;;;;;;2.25;57.34;96062.03;5087027;28;20181;-76
2021/03/18 11:27:59;;;;;;;8.03;4.33;;;;;;;2.27;59.07;96058.47;5102398;28;20200;-76
2021/03/18 11:30:36;;;;;;;5.47;3.87;;;;;;;1.67;60.68;96060.03;5113938;27;20211;-76
2021/03/18 11:33:10;;;;;;;10.30;6.00;;;;;;;1.69;61.64;96060.81;5092374;28;20183;-76
2021/03/18 11:35:35;;;;;;;7.53;4.53;;;;;;;1.83;62.19;96063.44;5077064;28;20180;-77
2021/03/18 11:38:01;;;;;;;7.77;4.10;;;;;;;1.78;63.17;96057.75;5121157;27;20221;-76
2021/03/18 11:40:26;;;;;;;6.40;4.60;;;;;;;1.96;63.50;96050.81;5098179;28;20196;-76
2021/03/18 11:42:51;;;;;;;7.50;4.80;;;;;;;2.12;62.35;96058.47;5094565;28;20208;-76